sensor_id;sensor_type;location;lat;lon;timestamp;P1;durP1;ratioP1;P2;durP2;ratioP2
70337;SDS011;57757;53.198;19.646;2022-07-05T00:01:30;7.60;;;2.90;;
70337;SDS011;57757;53.198;19.646;2022-07-05T00:03:57;6.60;;;2.80;;
70337;SDS011;57757;53.198;19.646;2022-07-05T00:06:25;7.90;;;3.10;;
70337;SDS011;57757;53.198;19.646;2022-07-05T00:08:53;7.50;;;3.20;;
70337;SDS011;57757;53.198;19.646;2022-07-05T00:11:20;7.30;;;2.80;;
70337;SDS011;57757;53.198;19.646;2022-07-05T00:13:48;7.40;;;3.40;;
70337;SDS011;57757;53.198;19.646;2022-07-05T00:16:15;7.40;;;3.20;;
70337;SDS011;57757;53.198;19.646;2022-07-05T00:18:43;6.60;;;3.00;;
70337;SDS011;57757;53.198;19.646;2022-07-05T00:21:10;8.90;;;3.00;;
70337;SDS011;57757;53.198;19.646;2022-07-05T00:23:38;10.50;;;3.50;;
70337;SDS011;57757;53.198;19.646;2022-07-05T00:26:06;10.60;;;3.60;;
70337;SDS011;57757;53.198;19.646;2022-07-05T00:28:33;11.10;;;3.90;;
70337;SDS011;57757;53.198;19.646;2022-07-05T00:31:01;14.00;;;5.00;;
70337;SDS011;57757;53.198;19.646;2022-07-05T00:33:28;11.90;;;5.20;;
70337;SDS011;57757;53.198;19.646;2022-07-05T00:35:56;9.20;;;3.50;;
70337;SDS011;57757;53.198;19.646;2022-07-05T00:38:23;10.00;;;3.40;;
70337;SDS011;57757;53.198;19.646;2022-07-05T00:40:51;6.90;;;2.70;;
70337;SDS011;57757;53.198;19.646;2022-07-05T00:43:18;7.90;;;2.60;;
70337;SDS011;57757;53.198;19.646;2022-07-05T00:45:46;7.00;;;2.50;;
70337;SDS011;57757;53.198;19.646;2022-07-05T00:48:13;6.60;;;2.70;;
70337;SDS011;57757;53.198;19.646;2022-07-05T00:50:41;6.20;;;2.50;;
70337;SDS011;57757;53.198;19.646;2022-07-05T00:53:12;7.00;;;2.70;;
70337;SDS011;57757;53.198;19.646;2022-07-05T00:55:39;7.70;;;2.60;;
70337;SDS011;57757;53.198;19.646;2022-07-05T00:58:07;8.80;;;2.70;;
70337;SDS011;57757;53.198;19.646;2022-07-05T01:00:35;7.10;;;2.70;;
70337;SDS011;57757;53.198;19.646;2022-07-05T01:03:03;6.80;;;2.70;;
70337;SDS011;57757;53.198;19.646;2022-07-05T01:05:31;6.90;;;2.60;;
70337;SDS011;57757;53.198;19.646;2022-07-05T01:08:00;6.70;;;3.00;;
70337;SDS011;57757;53.198;19.646;2022-07-05T01:10:29;7.50;;;3.10;;
70337;SDS011;57757;53.198;19.646;2022-07-05T01:12:57;7.50;;;2.80;;
70337;SDS011;57757;53.198;19.646;2022-07-05T01:15:26;6.50;;;2.80;;
70337;SDS011;57757;53.198;19.646;2022-07-05T01:17:54;6.90;;;2.70;;
70337;SDS011;57757;53.198;19.646;2022-07-05T01:20:21;8.60;;;2.90;;
70337;SDS011;57757;53.198;19.646;2022-07-05T01:22:50;7.80;;;3.00;;
70337;SDS011;57757;53.198;19.646;2022-07-05T01:25:22;7.70;;;3.00;;
70337;SDS011;57757;53.198;19.646;2022-07-05T01:27:51;8.00;;;3.10;;
70337;SDS011;57757;53.198;19.646;2022-07-05T01:30:20;7.90;;;2.90;;
70337;SDS011;57757;53.198;19.646;2022-07-05T01:32:47;8.40;;;2.80;;
70337;SDS011;57757;53.198;19.646;2022-07-05T01:35:16;6.10;;;3.00;;
70337;SDS011;57757;53.198;19.646;2022-07-05T01:37:47;6.30;;;3.10;;
70337;SDS011;57757;53.198;19.646;2022-07-05T01:40:16;9.20;;;3.00;;
70337;SDS011;57757;53.198;19.646;2022-07-05T01:42:45;7.20;;;3.20;;
70337;SDS011;57757;53.198;19.646;2022-07-05T01:45:12;6.60;;;3.40;;
70337;SDS011;57757;53.198;19.646;2022-07-05T01:48:00;8.00;;;3.60;;
70337;SDS011;57757;53.198;19.646;2022-07-05T01:50:31;8.00;;;3.50;;
70337;SDS011;57757;53.198;19.646;2022-07-05T01:53:03;11.20;;;3.90;;
70337;SDS011;57757;53.198;19.646;2022-07-05T01:55:32;10.60;;;4.40;;
70337;SDS011;57757;53.198;19.646;2022-07-05T01:58:00;8.70;;;3.90;;
70337;SDS011;57757;53.198;19.646;2022-07-05T02:00:28;12.10;;;4.40;;
70337;SDS011;57757;53.198;19.646;2022-07-05T02:02:56;17.50;;;6.60;;
70337;SDS011;57757;53.198;19.646;2022-07-05T02:05:25;14.90;;;5.40;;
70337;SDS011;57757;53.198;19.646;2022-07-05T02:07:54;9.00;;;4.40;;
70337;SDS011;57757;53.198;19.646;2022-07-05T02:10:22;7.90;;;3.30;;
70337;SDS011;57757;53.198;19.646;2022-07-05T02:12:49;10.00;;;3.70;;
70337;SDS011;57757;53.198;19.646;2022-07-05T02:15:16;7.60;;;3.20;;
70337;SDS011;57757;53.198;19.646;2022-07-05T02:17:44;7.80;;;3.40;;
70337;SDS011;57757;53.198;19.646;2022-07-05T02:20:11;7.70;;;3.20;;
70337;SDS011;57757;53.198;19.646;2022-07-05T02:22:39;7.90;;;3.50;;
70337;SDS011;57757;53.198;19.646;2022-07-05T02:25:06;9.50;;;3.60;;
70337;SDS011;57757;53.198;19.646;2022-07-05T02:27:34;8.00;;;3.50;;
70337;SDS011;57757;53.198;19.646;2022-07-05T02:30:02;6.60;;;3.50;;
70337;SDS011;57757;53.198;19.646;2022-07-05T02:32:30;6.90;;;3.10;;
70337;SDS011;57757;53.198;19.646;2022-07-05T02:34:59;11.10;;;3.10;;
70337;SDS011;57757;53.198;19.646;2022-07-05T02:37:26;8.00;;;3.60;;
70337;SDS011;57757;53.198;19.646;2022-07-05T02:39:54;7.40;;;3.20;;
70337;SDS011;57757;53.198;19.646;2022-07-05T02:42:22;8.30;;;3.30;;
70337;SDS011;57757;53.198;19.646;2022-07-05T02:44:49;7.50;;;3.70;;
70337;SDS011;57757;53.198;19.646;2022-07-05T02:47:17;7.30;;;3.40;;
70337;SDS011;57757;53.198;19.646;2022-07-05T02:49:44;6.40;;;3.40;;
70337;SDS011;57757;53.198;19.646;2022-07-05T02:52:12;7.80;;;4.30;;
70337;SDS011;57757;53.198;19.646;2022-07-05T02:54:39;8.00;;;3.50;;
70337;SDS011;57757;53.198;19.646;2022-07-05T02:57:07;6.60;;;3.10;;
70337;SDS011;57757;53.198;19.646;2022-07-05T02:59:35;6.00;;;2.60;;
70337;SDS011;57757;53.198;19.646;2022-07-05T03:02:02;7.30;;;3.10;;
70337;SDS011;57757;53.198;19.646;2022-07-05T03:04:30;20.00;;;4.30;;
70337;SDS011;57757;53.198;19.646;2022-07-05T03:06:57;7.80;;;3.60;;
70337;SDS011;57757;53.198;19.646;2022-07-05T03:09:25;8.00;;;3.50;;
70337;SDS011;57757;53.198;19.646;2022-07-05T03:11:53;7.70;;;3.60;;
70337;SDS011;57757;53.198;19.646;2022-07-05T03:14:20;10.30;;;3.70;;
70337;SDS011;57757;53.198;19.646;2022-07-05T03:16:47;6.60;;;3.40;;
70337;SDS011;57757;53.198;19.646;2022-07-05T03:19:15;7.50;;;3.10;;
70337;SDS011;57757;53.198;19.646;2022-07-05T03:21:42;24.70;;;4.20;;
70337;SDS011;57757;53.198;19.646;2022-07-05T03:24:11;45.40;;;5.40;;
70337;SDS011;57757;53.198;19.646;2022-07-05T03:26:38;8.50;;;3.20;;
70337;SDS011;57757;53.198;19.646;2022-07-05T03:29:06;7.20;;;2.80;;
70337;SDS011;57757;53.198;19.646;2022-07-05T03:31:33;8.60;;;3.60;;
70337;SDS011;57757;53.198;19.646;2022-07-05T03:34:01;7.60;;;3.40;;
70337;SDS011;57757;53.198;19.646;2022-07-05T03:36:29;9.10;;;3.30;;
70337;SDS011;57757;53.198;19.646;2022-07-05T03:38:56;7.80;;;3.50;;
70337;SDS011;57757;53.198;19.646;2022-07-05T03:41:24;7.70;;;3.70;;
70337;SDS011;57757;53.198;19.646;2022-07-05T03:43:51;7.90;;;3.30;;
70337;SDS011;57757;53.198;19.646;2022-07-05T03:46:19;7.80;;;3.70;;
70337;SDS011;57757;53.198;19.646;2022-07-05T03:48:47;7.90;;;3.30;;
70337;SDS011;57757;53.198;19.646;2022-07-05T03:51:14;8.30;;;3.90;;
70337;SDS011;57757;53.198;19.646;2022-07-05T03:53:42;7.50;;;3.50;;
70337;SDS011;57757;53.198;19.646;2022-07-05T03:56:09;7.30;;;3.20;;
70337;SDS011;57757;53.198;19.646;2022-07-05T03:58:38;7.10;;;3.50;;
70337;SDS011;57757;53.198;19.646;2022-07-05T04:01:05;10.70;;;3.20;;
70337;SDS011;57757;53.198;19.646;2022-07-05T04:03:33;10.20;;;3.20;;
70337;SDS011;57757;53.198;19.646;2022-07-05T04:06:10;9.30;;;3.30;;
70337;SDS011;57757;53.198;19.646;2022-07-05T04:08:39;6.80;;;3.00;;
70337;SDS011;57757;53.198;19.646;2022-07-05T04:11:07;7.80;;;2.60;;
70337;SDS011;57757;53.198;19.646;2022-07-05T04:13:36;8.90;;;2.30;;
70337;SDS011;57757;53.198;19.646;2022-07-05T04:16:04;7.10;;;2.60;;
70337;SDS011;57757;53.198;19.646;2022-07-05T04:18:32;7.80;;;2.80;;
70337;SDS011;57757;53.198;19.646;2022-07-05T04:20:59;21.80;;;3.80;;
70337;SDS011;57757;53.198;19.646;2022-07-05T04:23:27;9.20;;;2.70;;
70337;SDS011;57757;53.198;19.646;2022-07-05T04:25:54;8.40;;;2.80;;
70337;SDS011;57757;53.198;19.646;2022-07-05T04:28:22;15.80;;;3.10;;
70337;SDS011;57757;53.198;19.646;2022-07-05T04:30:50;9.30;;;2.70;;
70337;SDS011;57757;53.198;19.646;2022-07-05T04:33:17;6.80;;;2.50;;
70337;SDS011;57757;53.198;19.646;2022-07-05T04:35:45;12.90;;;2.80;;
70337;SDS011;57757;53.198;19.646;2022-07-05T04:38:12;8.70;;;2.70;;
70337;SDS011;57757;53.198;19.646;2022-07-05T04:40:40;5.10;;;2.20;;
70337;SDS011;57757;53.198;19.646;2022-07-05T04:43:08;8.40;;;2.60;;
70337;SDS011;57757;53.198;19.646;2022-07-05T04:45:35;7.30;;;2.10;;
70337;SDS011;57757;53.198;19.646;2022-07-05T04:48:03;7.20;;;2.00;;
70337;SDS011;57757;53.198;19.646;2022-07-05T04:50:31;5.80;;;1.90;;
70337;SDS011;57757;53.198;19.646;2022-07-05T04:52:59;6.10;;;1.70;;
70337;SDS011;57757;53.198;19.646;2022-07-05T04:55:26;7.90;;;2.30;;
70337;SDS011;57757;53.198;19.646;2022-07-05T04:57:54;5.60;;;1.80;;
70337;SDS011;57757;53.198;19.646;2022-07-05T05:00:21;6.00;;;2.20;;
70337;SDS011;57757;53.198;19.646;2022-07-05T05:02:49;7.50;;;2.20;;
70337;SDS011;57757;53.198;19.646;2022-07-05T05:05:16;6.80;;;2.00;;
70337;SDS011;57757;53.198;19.646;2022-07-05T05:07:44;7.10;;;1.90;;
70337;SDS011;57757;53.198;19.646;2022-07-05T05:10:12;23.40;;;2.70;;
70337;SDS011;57757;53.198;19.646;2022-07-05T05:12:40;7.30;;;1.90;;
70337;SDS011;57757;53.198;19.646;2022-07-05T05:15:07;9.10;;;1.80;;
70337;SDS011;57757;53.198;19.646;2022-07-05T05:17:37;5.70;;;2.10;;
70337;SDS011;57757;53.198;19.646;2022-07-05T05:20:12;11.30;;;2.20;;
70337;SDS011;57757;53.198;19.646;2022-07-05T05:22:41;6.00;;;1.80;;
70337;SDS011;57757;53.198;19.646;2022-07-05T05:25:10;6.20;;;2.20;;
70337;SDS011;57757;53.198;19.646;2022-07-05T05:27:41;76.90;;;7.40;;
70337;SDS011;57757;53.198;19.646;2022-07-05T05:30:16;8.40;;;1.60;;
70337;SDS011;57757;53.198;19.646;2022-07-05T05:32:44;10.00;;;1.70;;
70337;SDS011;57757;53.198;19.646;2022-07-05T05:35:12;6.30;;;1.60;;
70337;SDS011;57757;53.198;19.646;2022-07-05T05:37:47;8.50;;;1.40;;
70337;SDS011;57757;53.198;19.646;2022-07-05T05:40:16;7.00;;;1.50;;
70337;SDS011;57757;53.198;19.646;2022-07-05T05:42:45;6.70;;;1.40;;
70337;SDS011;57757;53.198;19.646;2022-07-05T05:45:12;10.20;;;1.50;;
70337;SDS011;57757;53.198;19.646;2022-07-05T05:50:12;6.30;;;2.20;;
70337;SDS011;57757;53.198;19.646;2022-07-05T05:52:39;8.20;;;1.50;;
70337;SDS011;57757;53.198;19.646;2022-07-05T05:55:07;8.10;;;1.50;;
70337;SDS011;57757;53.198;19.646;2022-07-05T05:57:34;16.20;;;2.00;;
70337;SDS011;57757;53.198;19.646;2022-07-05T06:00:03;5.90;;;1.40;;
70337;SDS011;57757;53.198;19.646;2022-07-05T06:02:32;7.90;;;1.50;;
70337;SDS011;57757;53.198;19.646;2022-07-05T06:05:01;5.10;;;1.40;;
70337;SDS011;57757;53.198;19.646;2022-07-05T06:07:29;5.30;;;1.10;;
70337;SDS011;57757;53.198;19.646;2022-07-05T06:09:56;6.40;;;1.40;;
70337;SDS011;57757;53.198;19.646;2022-07-05T06:12:24;8.80;;;1.30;;
70337;SDS011;57757;53.198;19.646;2022-07-05T06:14:51;5.40;;;1.20;;
70337;SDS011;57757;53.198;19.646;2022-07-05T06:17:19;5.50;;;1.10;;
70337;SDS011;57757;53.198;19.646;2022-07-05T06:19:46;5.60;;;1.00;;
70337;SDS011;57757;53.198;19.646;2022-07-05T06:22:14;4.00;;;0.80;;
70337;SDS011;57757;53.198;19.646;2022-07-05T06:24:42;5.60;;;1.00;;
70337;SDS011;57757;53.198;19.646;2022-07-05T06:27:29;4.70;;;1.10;;
70337;SDS011;57757;53.198;19.646;2022-07-05T06:29:58;10.60;;;1.50;;
70337;SDS011;57757;53.198;19.646;2022-07-05T06:32:26;5.50;;;1.10;;
70337;SDS011;57757;53.198;19.646;2022-07-05T06:34:53;5.00;;;1.00;;
70337;SDS011;57757;53.198;19.646;2022-07-05T06:37:21;4.30;;;0.70;;
70337;SDS011;57757;53.198;19.646;2022-07-05T06:39:49;5.40;;;1.20;;
70337;SDS011;57757;53.198;19.646;2022-07-05T06:42:16;5.60;;;1.40;;
70337;SDS011;57757;53.198;19.646;2022-07-05T06:44:44;6.00;;;1.10;;
70337;SDS011;57757;53.198;19.646;2022-07-05T06:47:11;4.40;;;0.80;;
70337;SDS011;57757;53.198;19.646;2022-07-05T06:49:38;5.30;;;1.00;;
70337;SDS011;57757;53.198;19.646;2022-07-05T06:52:06;6.00;;;0.90;;
70337;SDS011;57757;53.198;19.646;2022-07-05T06:54:33;5.30;;;0.90;;
70337;SDS011;57757;53.198;19.646;2022-07-05T06:57:20;4.70;;;0.70;;
70337;SDS011;57757;53.198;19.646;2022-07-05T07:00:03;5.20;;;0.80;;
70337;SDS011;57757;53.198;19.646;2022-07-05T07:02:52;4.40;;;0.80;;
70337;SDS011;57757;53.198;19.646;2022-07-05T07:05:20;5.50;;;0.90;;
70337;SDS011;57757;53.198;19.646;2022-07-05T07:07:55;4.70;;;0.80;;
70337;SDS011;57757;53.198;19.646;2022-07-05T07:10:39;5.70;;;0.90;;
70337;SDS011;57757;53.198;19.646;2022-07-05T07:13:06;4.00;;;0.60;;
70337;SDS011;57757;53.198;19.646;2022-07-05T07:15:34;5.20;;;0.70;;
70337;SDS011;57757;53.198;19.646;2022-07-05T07:18:02;4.70;;;1.00;;
70337;SDS011;57757;53.198;19.646;2022-07-05T07:20:30;12.20;;;1.30;;
70337;SDS011;57757;53.198;19.646;2022-07-05T07:22:58;4.30;;;0.70;;
70337;SDS011;57757;53.198;19.646;2022-07-05T07:25:25;11.30;;;1.30;;
70337;SDS011;57757;53.198;19.646;2022-07-05T07:27:54;4.30;;;1.10;;
70337;SDS011;57757;53.198;19.646;2022-07-05T07:30:26;9.40;;;1.00;;
70337;SDS011;57757;53.198;19.646;2022-07-05T07:32:55;4.40;;;0.90;;
70337;SDS011;57757;53.198;19.646;2022-07-05T07:35:22;8.80;;;1.00;;
70337;SDS011;57757;53.198;19.646;2022-07-05T07:37:50;5.40;;;1.00;;
70337;SDS011;57757;53.198;19.646;2022-07-05T07:40:17;4.00;;;0.60;;
70337;SDS011;57757;53.198;19.646;2022-07-05T07:42:45;4.60;;;0.90;;
70337;SDS011;57757;53.198;19.646;2022-07-05T07:45:12;4.30;;;0.80;;
70337;SDS011;57757;53.198;19.646;2022-07-05T07:47:40;4.60;;;0.80;;
70337;SDS011;57757;53.198;19.646;2022-07-05T07:50:08;4.90;;;1.10;;
70337;SDS011;57757;53.198;19.646;2022-07-05T07:52:35;4.50;;;0.90;;
70337;SDS011;57757;53.198;19.646;2022-07-05T07:55:05;7.50;;;1.50;;
70337;SDS011;57757;53.198;19.646;2022-07-05T07:57:34;5.60;;;1.40;;
70337;SDS011;57757;53.198;19.646;2022-07-05T08:00:02;5.20;;;0.90;;
70337;SDS011;57757;53.198;19.646;2022-07-05T08:02:31;5.00;;;0.90;;
70337;SDS011;57757;53.198;19.646;2022-07-05T08:04:58;3.90;;;0.60;;
70337;SDS011;57757;53.198;19.646;2022-07-05T08:07:26;4.10;;;0.90;;
70337;SDS011;57757;53.198;19.646;2022-07-05T08:09:54;6.20;;;1.10;;
70337;SDS011;57757;53.198;19.646;2022-07-05T08:12:21;7.40;;;1.00;;
70337;SDS011;57757;53.198;19.646;2022-07-05T08:14:49;5.50;;;1.00;;
70337;SDS011;57757;53.198;19.646;2022-07-05T08:17:16;6.80;;;1.00;;
70337;SDS011;57757;53.198;19.646;2022-07-05T08:19:47;5.30;;;1.60;;
70337;SDS011;57757;53.198;19.646;2022-07-05T08:22:31;4.50;;;0.80;;
70337;SDS011;57757;53.198;19.646;2022-07-05T08:24:58;4.40;;;0.80;;
70337;SDS011;57757;53.198;19.646;2022-07-05T08:27:26;7.20;;;1.10;;
70337;SDS011;57757;53.198;19.646;2022-07-05T08:29:53;6.10;;;1.00;;
70337;SDS011;57757;53.198;19.646;2022-07-05T08:32:21;4.70;;;1.10;;
70337;SDS011;57757;53.198;19.646;2022-07-05T08:34:49;4.70;;;1.10;;
70337;SDS011;57757;53.198;19.646;2022-07-05T08:37:16;5.70;;;0.80;;
70337;SDS011;57757;53.198;19.646;2022-07-05T08:39:43;5.60;;;0.90;;
70337;SDS011;57757;53.198;19.646;2022-07-05T08:42:11;9.80;;;0.90;;
70337;SDS011;57757;53.198;19.646;2022-07-05T08:44:39;4.40;;;0.90;;
70337;SDS011;57757;53.198;19.646;2022-07-05T08:47:11;3.70;;;0.80;;
70337;SDS011;57757;53.198;19.646;2022-07-05T08:49:39;4.60;;;1.00;;
70337;SDS011;57757;53.198;19.646;2022-07-05T08:52:10;7.00;;;1.10;;
70337;SDS011;57757;53.198;19.646;2022-07-05T08:54:39;4.80;;;0.70;;
70337;SDS011;57757;53.198;19.646;2022-07-05T08:57:07;5.70;;;0.90;;
70337;SDS011;57757;53.198;19.646;2022-07-05T08:59:40;4.40;;;1.10;;
70337;SDS011;57757;53.198;19.646;2022-07-05T09:02:11;5.90;;;0.80;;
70337;SDS011;57757;53.198;19.646;2022-07-05T09:04:43;5.50;;;0.90;;
70337;SDS011;57757;53.198;19.646;2022-07-05T09:07:15;5.90;;;1.10;;
70337;SDS011;57757;53.198;19.646;2022-07-05T09:09:46;4.20;;;0.90;;
70337;SDS011;57757;53.198;19.646;2022-07-05T09:12:15;4.10;;;0.80;;
70337;SDS011;57757;53.198;19.646;2022-07-05T09:14:51;5.10;;;0.90;;
70337;SDS011;57757;53.198;19.646;2022-07-05T09:17:19;4.20;;;1.10;;
70337;SDS011;57757;53.198;19.646;2022-07-05T09:22:44;4.80;;;1.10;;
70337;SDS011;57757;53.198;19.646;2022-07-05T09:25:18;4.40;;;1.00;;
70337;SDS011;57757;53.198;19.646;2022-07-05T09:28:01;6.80;;;1.10;;
70337;SDS011;57757;53.198;19.646;2022-07-05T09:30:33;5.40;;;1.00;;
70337;SDS011;57757;53.198;19.646;2022-07-05T09:33:04;4.50;;;1.20;;
70337;SDS011;57757;53.198;19.646;2022-07-05T09:35:51;4.30;;;1.00;;
70337;SDS011;57757;53.198;19.646;2022-07-05T09:38:28;4.20;;;0.90;;
70337;SDS011;57757;53.198;19.646;2022-07-05T09:40:57;5.00;;;1.70;;
70337;SDS011;57757;53.198;19.646;2022-07-05T09:43:26;5.70;;;1.00;;
70337;SDS011;57757;53.198;19.646;2022-07-05T09:45:56;5.70;;;1.20;;
70337;SDS011;57757;53.198;19.646;2022-07-05T09:48:30;6.00;;;1.20;;
70337;SDS011;57757;53.198;19.646;2022-07-05T09:51:09;6.00;;;1.10;;
70337;SDS011;57757;53.198;19.646;2022-07-05T09:53:59;4.40;;;1.10;;
70337;SDS011;57757;53.198;19.646;2022-07-05T09:59:17;5.30;;;1.00;;
70337;SDS011;57757;53.198;19.646;2022-07-05T10:01:48;4.30;;;1.10;;
70337;SDS011;57757;53.198;19.646;2022-07-05T10:04:16;5.20;;;1.40;;
70337;SDS011;57757;53.198;19.646;2022-07-05T10:06:44;5.00;;;1.10;;
70337;SDS011;57757;53.198;19.646;2022-07-05T10:09:12;7.00;;;1.20;;
70337;SDS011;57757;53.198;19.646;2022-07-05T10:11:43;12.90;;;3.70;;
70337;SDS011;57757;53.198;19.646;2022-07-05T10:14:14;6.50;;;1.60;;
70337;SDS011;57757;53.198;19.646;2022-07-05T10:16:47;6.90;;;1.90;;
70337;SDS011;57757;53.198;19.646;2022-07-05T10:19:21;5.80;;;1.30;;
70337;SDS011;57757;53.198;19.646;2022-07-05T10:21:51;6.10;;;1.60;;
70337;SDS011;57757;53.198;19.646;2022-07-05T10:24:39;4.30;;;1.20;;
70337;SDS011;57757;53.198;19.646;2022-07-05T10:27:07;5.00;;;1.30;;
70337;SDS011;57757;53.198;19.646;2022-07-05T10:29:36;6.60;;;1.30;;
70337;SDS011;57757;53.198;19.646;2022-07-05T10:32:06;4.50;;;1.30;;
70337;SDS011;57757;53.198;19.646;2022-07-05T10:34:36;7.40;;;1.20;;
70337;SDS011;57757;53.198;19.646;2022-07-05T10:37:28;15.00;;;1.90;;
70337;SDS011;57757;53.198;19.646;2022-07-05T10:39:58;5.80;;;1.20;;
70337;SDS011;57757;53.198;19.646;2022-07-05T10:42:29;5.10;;;1.50;;
70337;SDS011;57757;53.198;19.646;2022-07-05T10:45:02;4.90;;;1.40;;
70337;SDS011;57757;53.198;19.646;2022-07-05T10:47:30;4.00;;;1.10;;
70337;SDS011;57757;53.198;19.646;2022-07-05T10:50:01;5.80;;;1.30;;
70337;SDS011;57757;53.198;19.646;2022-07-05T10:52:31;16.00;;;1.70;;
70337;SDS011;57757;53.198;19.646;2022-07-05T10:55:32;6.70;;;1.20;;
70337;SDS011;57757;53.198;19.646;2022-07-05T11:09:18;4.90;;;1.70;;
70337;SDS011;57757;53.198;19.646;2022-07-05T11:12:00;4.80;;;1.20;;
70337;SDS011;57757;53.198;19.646;2022-07-05T11:14:49;6.90;;;1.70;;
70337;SDS011;57757;53.198;19.646;2022-07-05T11:17:18;4.60;;;1.60;;
70337;SDS011;57757;53.198;19.646;2022-07-05T11:20:11;5.20;;;1.50;;
70337;SDS011;57757;53.198;19.646;2022-07-05T11:25:32;4.80;;;1.50;;
70337;SDS011;57757;53.198;19.646;2022-07-05T11:28:11;5.20;;;1.70;;
70337;SDS011;57757;53.198;19.646;2022-07-05T11:30:46;5.00;;;1.90;;
70337;SDS011;57757;53.198;19.646;2022-07-05T11:35:57;7.20;;;2.40;;
70337;SDS011;57757;53.198;19.646;2022-07-05T11:38:25;7.40;;;2.40;;
70337;SDS011;57757;53.198;19.646;2022-07-05T11:41:14;5.30;;;1.60;;
70337;SDS011;57757;53.198;19.646;2022-07-05T11:43:42;7.10;;;2.10;;
70337;SDS011;57757;53.198;19.646;2022-07-05T11:46:10;5.90;;;2.00;;
70337;SDS011;57757;53.198;19.646;2022-07-05T11:48:58;5.40;;;1.70;;
70337;SDS011;57757;53.198;19.646;2022-07-05T11:51:26;9.10;;;4.70;;
70337;SDS011;57757;53.198;19.646;2022-07-05T11:53:54;14.40;;;8.30;;
70337;SDS011;57757;53.198;19.646;2022-07-05T11:56:42;6.20;;;2.30;;
70337;SDS011;57757;53.198;19.646;2022-07-05T12:01:53;4.70;;;1.60;;
70337;SDS011;57757;53.198;19.646;2022-07-05T12:04:23;5.90;;;2.60;;
70337;SDS011;57757;53.198;19.646;2022-07-05T12:06:55;7.60;;;3.70;;
70337;SDS011;57757;53.198;19.646;2022-07-05T12:11:54;6.00;;;2.10;;
70337;SDS011;57757;53.198;19.646;2022-07-05T12:17:22;6.50;;;2.30;;
70337;SDS011;57757;53.198;19.646;2022-07-05T12:19:53;5.10;;;2.20;;
70337;SDS011;57757;53.198;19.646;2022-07-05T12:25:00;5.70;;;2.70;;
70337;SDS011;57757;53.198;19.646;2022-07-05T12:27:29;4.80;;;2.50;;
70337;SDS011;57757;53.198;19.646;2022-07-05T12:29:59;5.70;;;2.70;;
70337;SDS011;57757;53.198;19.646;2022-07-05T12:32:29;6.10;;;2.90;;
70337;SDS011;57757;53.198;19.646;2022-07-05T12:34:58;6.20;;;2.60;;
70337;SDS011;57757;53.198;19.646;2022-07-05T12:37:32;6.00;;;2.70;;
70337;SDS011;57757;53.198;19.646;2022-07-05T12:40:08;8.70;;;2.80;;
70337;SDS011;57757;53.198;19.646;2022-07-05T12:42:37;4.80;;;2.40;;
70337;SDS011;57757;53.198;19.646;2022-07-05T12:45:09;4.90;;;2.20;;
70337;SDS011;57757;53.198;19.646;2022-07-05T12:50:23;7.90;;;2.60;;
70337;SDS011;57757;53.198;19.646;2022-07-05T12:55:36;9.60;;;2.90;;
70337;SDS011;57757;53.198;19.646;2022-07-05T12:58:20;7.00;;;3.10;;
70337;SDS011;57757;53.198;19.646;2022-07-05T13:00:47;5.10;;;2.60;;
70337;SDS011;57757;53.198;19.646;2022-07-05T13:03:15;7.00;;;2.50;;
70337;SDS011;57757;53.198;19.646;2022-07-05T13:05:43;4.90;;;2.00;;
70337;SDS011;57757;53.198;19.646;2022-07-05T13:08:10;5.40;;;2.80;;
70337;SDS011;57757;53.198;19.646;2022-07-05T13:10:54;5.60;;;2.40;;
70337;SDS011;57757;53.198;19.646;2022-07-05T13:13:21;6.20;;;2.80;;
70337;SDS011;57757;53.198;19.646;2022-07-05T13:15:49;6.10;;;2.70;;
70337;SDS011;57757;53.198;19.646;2022-07-05T13:18:24;4.80;;;2.40;;
70337;SDS011;57757;53.198;19.646;2022-07-05T13:20:53;5.90;;;2.50;;
70337;SDS011;57757;53.198;19.646;2022-07-05T13:23:21;5.10;;;2.00;;
70337;SDS011;57757;53.198;19.646;2022-07-05T13:25:48;7.00;;;2.60;;
70337;SDS011;57757;53.198;19.646;2022-07-05T13:28:16;6.60;;;2.40;;
70337;SDS011;57757;53.198;19.646;2022-07-05T13:30:43;5.60;;;2.30;;
70337;SDS011;57757;53.198;19.646;2022-07-05T13:33:11;7.20;;;2.50;;
70337;SDS011;57757;53.198;19.646;2022-07-05T13:35:38;6.80;;;2.00;;
70337;SDS011;57757;53.198;19.646;2022-07-05T13:38:06;4.90;;;2.20;;
70337;SDS011;57757;53.198;19.646;2022-07-05T13:40:33;5.50;;;2.20;;
70337;SDS011;57757;53.198;19.646;2022-07-05T13:43:01;5.30;;;2.10;;
70337;SDS011;57757;53.198;19.646;2022-07-05T13:45:28;8.00;;;2.10;;
70337;SDS011;57757;53.198;19.646;2022-07-05T13:47:56;6.50;;;2.60;;
70337;SDS011;57757;53.198;19.646;2022-07-05T13:50:24;5.50;;;2.00;;
70337;SDS011;57757;53.198;19.646;2022-07-05T13:53:07;7.60;;;2.50;;
70337;SDS011;57757;53.198;19.646;2022-07-05T13:55:35;5.70;;;2.60;;
70337;SDS011;57757;53.198;19.646;2022-07-05T13:58:02;5.80;;;2.50;;
70337;SDS011;57757;53.198;19.646;2022-07-05T14:00:30;4.80;;;1.90;;
70337;SDS011;57757;53.198;19.646;2022-07-05T14:02:58;5.70;;;2.90;;
70337;SDS011;57757;53.198;19.646;2022-07-05T14:05:32;6.30;;;2.60;;
70337;SDS011;57757;53.198;19.646;2022-07-05T14:08:00;9.90;;;2.30;;
70337;SDS011;57757;53.198;19.646;2022-07-05T14:10:27;5.00;;;2.50;;
70337;SDS011;57757;53.198;19.646;2022-07-05T14:12:55;5.10;;;2.50;;
70337;SDS011;57757;53.198;19.646;2022-07-05T14:15:22;6.50;;;3.00;;
70337;SDS011;57757;53.198;19.646;2022-07-05T14:17:50;5.80;;;2.80;;
70337;SDS011;57757;53.198;19.646;2022-07-05T14:20:18;6.50;;;2.10;;
70337;SDS011;57757;53.198;19.646;2022-07-05T14:22:45;7.40;;;2.60;;
70337;SDS011;57757;53.198;19.646;2022-07-05T14:25:13;7.40;;;2.20;;
70337;SDS011;57757;53.198;19.646;2022-07-05T14:27:40;6.20;;;2.30;;
70337;SDS011;57757;53.198;19.646;2022-07-05T14:30:10;5.30;;;1.60;;
70337;SDS011;57757;53.198;19.646;2022-07-05T14:32:38;5.10;;;1.80;;
70337;SDS011;57757;53.198;19.646;2022-07-05T14:35:12;5.20;;;1.40;;
70337;SDS011;57757;53.198;19.646;2022-07-05T14:37:40;10.50;;;7.00;;
70337;SDS011;57757;53.198;19.646;2022-07-05T14:40:07;13.10;;;2.90;;
70337;SDS011;57757;53.198;19.646;2022-07-05T14:42:35;5.10;;;1.60;;
70337;SDS011;57757;53.198;19.646;2022-07-05T14:45:03;5.00;;;1.60;;
70337;SDS011;57757;53.198;19.646;2022-07-05T14:47:31;4.60;;;1.20;;
70337;SDS011;57757;53.198;19.646;2022-07-05T14:49:58;7.30;;;2.00;;
70337;SDS011;57757;53.198;19.646;2022-07-05T14:52:26;6.30;;;2.50;;
70337;SDS011;57757;53.198;19.646;2022-07-05T14:54:56;5.90;;;2.30;;
70337;SDS011;57757;53.198;19.646;2022-07-05T14:57:23;5.60;;;2.00;;
70337;SDS011;57757;53.198;19.646;2022-07-05T14:59:51;5.80;;;1.40;;
70337;SDS011;57757;53.198;19.646;2022-07-05T15:02:18;6.30;;;1.80;;
70337;SDS011;57757;53.198;19.646;2022-07-05T15:04:46;4.90;;;1.70;;
70337;SDS011;57757;53.198;19.646;2022-07-05T15:07:13;9.70;;;2.50;;
70337;SDS011;57757;53.198;19.646;2022-07-05T15:09:41;5.80;;;1.60;;
70337;SDS011;57757;53.198;19.646;2022-07-05T15:12:08;5.40;;;1.40;;
70337;SDS011;57757;53.198;19.646;2022-07-05T15:14:36;12.40;;;3.80;;
70337;SDS011;57757;53.198;19.646;2022-07-05T15:17:04;12.00;;;3.60;;
70337;SDS011;57757;53.198;19.646;2022-07-05T15:19:31;6.50;;;1.90;;
70337;SDS011;57757;53.198;19.646;2022-07-05T15:21:59;5.50;;;1.60;;
70337;SDS011;57757;53.198;19.646;2022-07-05T15:24:27;9.80;;;2.50;;
70337;SDS011;57757;53.198;19.646;2022-07-05T15:26:54;5.60;;;1.80;;
70337;SDS011;57757;53.198;19.646;2022-07-05T15:29:41;7.00;;;1.60;;